sensor_id;sensor_type;location;lat;lon;timestamp;P1;durP1;ratioP1;P2;durP2;ratioP2
17890;SDS011;9071;48.220;14.480;2023-03-25T00:04:53;1.83;;;0.80;;
17890;SDS011;9071;48.220;14.480;2023-03-25T00:09:56;1.00;;;0.70;;
17890;SDS011;9071;48.220;14.480;2023-03-25T00:14:58;1.20;;;0.90;;
17890;SDS011;9071;48.220;14.480;2023-03-25T00:20:01;2.27;;;1.10;;
17890;SDS011;9071;48.220;14.480;2023-03-25T00:25:12;1.70;;;0.97;;
17890;SDS011;9071;48.220;14.480;2023-03-25T00:30:17;1.37;;;0.90;;
17890;SDS011;9071;48.220;14.480;2023-03-25T00:35:20;1.57;;;1.00;;
17890;SDS011;9071;48.220;14.480;2023-03-25T00:40:24;0.97;;;0.80;;
17890;SDS011;9071;48.220;14.480;2023-03-25T00:45:28;2.07;;;0.90;;
17890;SDS011;9071;48.220;14.480;2023-03-25T00:50:30;1.23;;;0.80;;
17890;SDS011;9071;48.220;14.480;2023-03-25T00:55:34;4.57;;;1.13;;
17890;SDS011;9071;48.220;14.480;2023-03-25T01:00:36;1.07;;;0.77;;
17890;SDS011;9071;48.220;14.480;2023-03-25T01:05:38;1.53;;;0.90;;
17890;SDS011;9071;48.220;14.480;2023-03-25T01:10:42;2.57;;;1.30;;
17890;SDS011;9071;48.220;14.480;2023-03-25T01:15:44;5.00;;;1.97;;
17890;SDS011;9071;48.220;14.480;2023-03-25T01:20:47;13.03;;;3.00;;
17890;SDS011;9071;48.220;14.480;2023-03-25T01:25:50;7.97;;;2.63;;
17890;SDS011;9071;48.220;14.480;2023-03-25T01:30:58;4.50;;;1.80;;
17890;SDS011;9071;48.220;14.480;2023-03-25T01:36:01;5.20;;;2.43;;
17890;SDS011;9071;48.220;14.480;2023-03-25T01:41:06;1.97;;;1.10;;
17890;SDS011;9071;48.220;14.480;2023-03-25T01:46:10;1.27;;;0.93;;
17890;SDS011;9071;48.220;14.480;2023-03-25T01:51:15;1.50;;;1.00;;
17890;SDS011;9071;48.220;14.480;2023-03-25T01:56:23;1.33;;;0.97;;
17890;SDS011;9071;48.220;14.480;2023-03-25T02:01:31;1.00;;;0.90;;
17890;SDS011;9071;48.220;14.480;2023-03-25T02:06:34;1.33;;;0.80;;
17890;SDS011;9071;48.220;14.480;2023-03-25T02:11:43;1.30;;;1.10;;
17890;SDS011;9071;48.220;14.480;2023-03-25T02:16:47;2.93;;;1.03;;
17890;SDS011;9071;48.220;14.480;2023-03-25T02:22:07;1.00;;;0.90;;
17890;SDS011;9071;48.220;14.480;2023-03-25T02:33:05;1.67;;;1.10;;
17890;SDS011;9071;48.220;14.480;2023-03-25T02:38:30;1.10;;;1.00;;
17890;SDS011;9071;48.220;14.480;2023-03-25T02:43:38;1.50;;;1.07;;
17890;SDS011;9071;48.220;14.480;2023-03-25T02:48:46;1.77;;;1.10;;
17890;SDS011;9071;48.220;14.480;2023-03-25T02:53:57;2.60;;;1.20;;
17890;SDS011;9071;48.220;14.480;2023-03-25T02:59:02;1.73;;;1.27;;
17890;SDS011;9071;48.220;14.480;2023-03-25T03:04:07;1.57;;;1.20;;
17890;SDS011;9071;48.220;14.480;2023-03-25T03:09:22;1.57;;;1.13;;
17890;SDS011;9071;48.220;14.480;2023-03-25T03:14:32;1.60;;;1.23;;
17890;SDS011;9071;48.220;14.480;2023-03-25T03:19:44;1.57;;;1.37;;
17890;SDS011;9071;48.220;14.480;2023-03-25T03:24:53;2.00;;;1.13;;
17890;SDS011;9071;48.220;14.480;2023-03-25T03:30:03;1.30;;;1.10;;
17890;SDS011;9071;48.220;14.480;2023-03-25T03:35:12;1.73;;;1.10;;
17890;SDS011;9071;48.220;14.480;2023-03-25T03:40:19;2.83;;;1.43;;
17890;SDS011;9071;48.220;14.480;2023-03-25T03:45:25;1.50;;;1.00;;
17890;SDS011;9071;48.220;14.480;2023-03-25T03:50:35;1.43;;;1.20;;
17890;SDS011;9071;48.220;14.480;2023-03-25T03:55:43;1.73;;;1.30;;
17890;SDS011;9071;48.220;14.480;2023-03-25T04:00:50;1.33;;;1.00;;
17890;SDS011;9071;48.220;14.480;2023-03-25T04:06:00;1.97;;;1.40;;
17890;SDS011;9071;48.220;14.480;2023-03-25T04:11:09;2.33;;;1.27;;
17890;SDS011;9071;48.220;14.480;2023-03-25T04:16:15;2.53;;;1.30;;
17890;SDS011;9071;48.220;14.480;2023-03-25T04:21:18;3.37;;;1.20;;
17890;SDS011;9071;48.220;14.480;2023-03-25T04:26:21;1.10;;;1.00;;
17890;SDS011;9071;48.220;14.480;2023-03-25T04:31:23;2.07;;;0.90;;
17890;SDS011;9071;48.220;14.480;2023-03-25T04:36:30;3.23;;;1.30;;
17890;SDS011;9071;48.220;14.480;2023-03-25T04:41:38;1.33;;;1.17;;
17890;SDS011;9071;48.220;14.480;2023-03-25T04:46:40;1.87;;;1.43;;
17890;SDS011;9071;48.220;14.480;2023-03-25T04:51:43;2.47;;;1.20;;
17890;SDS011;9071;48.220;14.480;2023-03-25T04:56:46;4.00;;;1.80;;
17890;SDS011;9071;48.220;14.480;2023-03-25T05:01:50;2.03;;;1.30;;
17890;SDS011;9071;48.220;14.480;2023-03-25T05:06:53;4.53;;;1.40;;
17890;SDS011;9071;48.220;14.480;2023-03-25T05:11:57;2.13;;;1.40;;
17890;SDS011;9071;48.220;14.480;2023-03-25T05:16:59;2.13;;;1.40;;
17890;SDS011;9071;48.220;14.480;2023-03-25T05:22:01;5.80;;;1.63;;
17890;SDS011;9071;48.220;14.480;2023-03-25T05:27:05;6.63;;;1.30;;
17890;SDS011;9071;48.220;14.480;2023-03-25T05:32:07;1.53;;;0.87;;
17890;SDS011;9071;48.220;14.480;2023-03-25T05:37:09;3.40;;;1.20;;
17890;SDS011;9071;48.220;14.480;2023-03-25T05:42:13;2.97;;;1.33;;
17890;SDS011;9071;48.220;14.480;2023-03-25T05:47:15;3.23;;;1.17;;
17890;SDS011;9071;48.220;14.480;2023-03-25T05:52:19;3.67;;;1.37;;
17890;SDS011;9071;48.220;14.480;2023-03-25T05:57:24;3.30;;;0.93;;
17890;SDS011;9071;48.220;14.480;2023-03-25T06:02:27;2.17;;;0.90;;
17890;SDS011;9071;48.220;14.480;2023-03-25T06:07:29;1.57;;;0.90;;
17890;SDS011;9071;48.220;14.480;2023-03-25T06:12:33;4.03;;;1.00;;
17890;SDS011;9071;48.220;14.480;2023-03-25T06:17:38;6.30;;;1.20;;
17890;SDS011;9071;48.220;14.480;2023-03-25T06:22:40;2.27;;;1.00;;
17890;SDS011;9071;48.220;14.480;2023-03-25T06:27:45;4.47;;;1.00;;
17890;SDS011;9071;48.220;14.480;2023-03-25T06:32:49;3.07;;;1.13;;
17890;SDS011;9071;48.220;14.480;2023-03-25T06:37:51;1.70;;;0.90;;
17890;SDS011;9071;48.220;14.480;2023-03-25T06:42:54;4.07;;;0.80;;
17890;SDS011;9071;48.220;14.480;2023-03-25T06:47:56;4.73;;;0.90;;
17890;SDS011;9071;48.220;14.480;2023-03-25T06:52:59;3.53;;;1.30;;
17890;SDS011;9071;48.220;14.480;2023-03-25T06:58:04;1.67;;;0.90;;
17890;SDS011;9071;48.220;14.480;2023-03-25T07:03:06;2.90;;;1.10;;
17890;SDS011;9071;48.220;14.480;2023-03-25T07:08:08;2.57;;;1.50;;
17890;SDS011;9071;48.220;14.480;2023-03-25T07:13:11;2.97;;;1.30;;
17890;SDS011;9071;48.220;14.480;2023-03-25T07:18:13;2.93;;;1.10;;
17890;SDS011;9071;48.220;14.480;2023-03-25T07:23:15;4.57;;;1.23;;
17890;SDS011;9071;48.220;14.480;2023-03-25T07:28:19;6.00;;;1.63;;
17890;SDS011;9071;48.220;14.480;2023-03-25T07:33:21;2.93;;;1.30;;
17890;SDS011;9071;48.220;14.480;2023-03-25T07:38:23;2.10;;;0.90;;
17890;SDS011;9071;48.220;14.480;2023-03-25T07:43:26;3.93;;;0.97;;
17890;SDS011;9071;48.220;14.480;2023-03-25T07:48:29;7.00;;;1.67;;
17890;SDS011;9071;48.220;14.480;2023-03-25T07:53:31;4.87;;;1.20;;
17890;SDS011;9071;48.220;14.480;2023-03-25T07:58:35;4.77;;;1.47;;
17890;SDS011;9071;48.220;14.480;2023-03-25T08:03:37;3.03;;;0.97;;
17890;SDS011;9071;48.220;14.480;2023-03-25T08:08:39;2.30;;;1.10;;
17890;SDS011;9071;48.220;14.480;2023-03-25T08:13:43;3.20;;;1.60;;
17890;SDS011;9071;48.220;14.480;2023-03-25T08:18:45;3.40;;;1.20;;
17890;SDS011;9071;48.220;14.480;2023-03-25T08:23:47;4.03;;;1.00;;
17890;SDS011;9071;48.220;14.480;2023-03-25T08:28:50;2.53;;;1.00;;
17890;SDS011;9071;48.220;14.480;2023-03-25T08:33:55;6.23;;;1.43;;
17890;SDS011;9071;48.220;14.480;2023-03-25T08:38:57;6.87;;;1.70;;
17890;SDS011;9071;48.220;14.480;2023-03-25T08:44:01;2.67;;;1.20;;
17890;SDS011;9071;48.220;14.480;2023-03-25T08:49:04;4.23;;;1.03;;
17890;SDS011;9071;48.220;14.480;2023-03-25T08:54:06;2.97;;;1.07;;
17890;SDS011;9071;48.220;14.480;2023-03-25T08:59:10;3.67;;;1.17;;
17890;SDS011;9071;48.220;14.480;2023-03-25T09:04:12;3.57;;;1.27;;
17890;SDS011;9071;48.220;14.480;2023-03-25T09:09:14;3.57;;;0.77;;
17890;SDS011;9071;48.220;14.480;2023-03-25T09:14:18;3.47;;;1.00;;
17890;SDS011;9071;48.220;14.480;2023-03-25T09:19:20;2.00;;;1.40;;
17890;SDS011;9071;48.220;14.480;2023-03-25T09:24:22;1.10;;;0.87;;
17890;SDS011;9071;48.220;14.480;2023-03-25T09:29:26;6.70;;;2.00;;
17890;SDS011;9071;48.220;14.480;2023-03-25T09:34:28;2.90;;;1.07;;
17890;SDS011;9071;48.220;14.480;2023-03-25T09:39:31;3.83;;;1.00;;
17890;SDS011;9071;48.220;14.480;2023-03-25T09:44:36;2.37;;;0.70;;
17890;SDS011;9071;48.220;14.480;2023-03-25T09:49:50;3.23;;;0.80;;
17890;SDS011;9071;48.220;14.480;2023-03-25T09:54:56;2.57;;;0.77;;
17890;SDS011;9071;48.220;14.480;2023-03-25T10:00:04;4.30;;;1.20;;
17890;SDS011;9071;48.220;14.480;2023-03-25T10:05:15;1.57;;;1.00;;
17890;SDS011;9071;48.220;14.480;2023-03-25T10:10:26;3.47;;;1.10;;
17890;SDS011;9071;48.220;14.480;2023-03-25T10:15:35;2.97;;;1.00;;
17890;SDS011;9071;48.220;14.480;2023-03-25T10:20:49;3.63;;;1.10;;
17890;SDS011;9071;48.220;14.480;2023-03-25T10:25:59;0.60;;;0.60;;
17890;SDS011;9071;48.220;14.480;2023-03-25T10:31:08;5.28;;;0.90;;
17890;SDS011;9071;48.220;14.480;2023-03-25T10:36:16;1.70;;;0.68;;
17890;SDS011;9071;48.220;14.480;2023-03-25T10:41:23;2.05;;;0.70;;
17890;SDS011;9071;48.220;14.480;2023-03-25T10:46:29;1.45;;;0.70;;
17890;SDS011;9071;48.220;14.480;2023-03-25T10:51:33;2.55;;;0.80;;
17890;SDS011;9071;48.220;14.480;2023-03-25T10:56:37;4.77;;;1.10;;
17890;SDS011;9071;48.220;14.480;2023-03-25T11:01:44;6.23;;;1.70;;
17890;SDS011;9071;48.220;14.480;2023-03-25T11:06:50;4.97;;;1.40;;
17890;SDS011;9071;48.220;14.480;2023-03-25T11:11:55;4.60;;;1.30;;
17890;SDS011;9071;48.220;14.480;2023-03-25T11:17:02;3.43;;;0.90;;
17890;SDS011;9071;48.220;14.480;2023-03-25T11:22:10;4.20;;;0.63;;
17890;SDS011;9071;48.220;14.480;2023-03-25T11:27:20;2.33;;;0.70;;
17890;SDS011;9071;48.220;14.480;2023-03-25T11:32:31;2.73;;;0.67;;
17890;SDS011;9071;48.220;14.480;2023-03-25T11:37:35;3.87;;;0.80;;
17890;SDS011;9071;48.220;14.480;2023-03-25T11:42:44;4.33;;;1.50;;
17890;SDS011;9071;48.220;14.480;2023-03-25T11:47:52;1.27;;;0.50;;
17890;SDS011;9071;48.220;14.480;2023-03-25T11:53:00;1.77;;;0.70;;
17890;SDS011;9071;48.220;14.480;2023-03-25T11:58:04;1.07;;;0.50;;
17890;SDS011;9071;48.220;14.480;2023-03-25T12:03:17;2.50;;;1.20;;
17890;SDS011;9071;48.220;14.480;2023-03-25T12:08:21;1.50;;;0.85;;
17890;SDS011;9071;48.220;14.480;2023-03-25T12:13:26;1.45;;;0.60;;
17890;SDS011;9071;48.220;14.480;2023-03-25T12:18:47;2.00;;;0.70;;
17890;SDS011;9071;48.220;14.480;2023-03-25T12:23:58;2.15;;;0.50;;
17890;SDS011;9071;48.220;14.480;2023-03-25T12:29:14;1.20;;;0.50;;
17890;SDS011;9071;48.220;14.480;2023-03-25T12:34:27;4.50;;;1.50;;
17890;SDS011;9071;48.220;14.480;2023-03-25T12:39:41;1.50;;;0.30;;
17890;SDS011;9071;48.220;14.480;2023-03-25T12:44:57;1.00;;;0.60;;
17890;SDS011;9071;48.220;14.480;2023-03-25T12:50:18;2.25;;;0.47;;
17890;SDS011;9071;48.220;14.480;2023-03-25T12:55:44;3.05;;;0.98;;
17890;SDS011;9071;48.220;14.480;2023-03-25T13:00:56;0.95;;;0.40;;
17890;SDS011;9071;48.220;14.480;2023-03-25T13:06:10;1.25;;;0.70;;
17890;SDS011;9071;48.220;14.480;2023-03-25T13:11:21;1.30;;;0.43;;
17890;SDS011;9071;48.220;14.480;2023-03-25T13:16:28;1.17;;;0.50;;
17890;SDS011;9071;48.220;14.480;2023-03-25T13:21:34;3.80;;;0.90;;
17890;SDS011;9071;48.220;14.480;2023-03-25T13:26:38;1.57;;;0.60;;
17890;SDS011;9071;48.220;14.480;2023-03-25T13:31:44;1.53;;;0.90;;
17890;SDS011;9071;48.220;14.480;2023-03-25T13:36:52;0.83;;;0.60;;
17890;SDS011;9071;48.220;14.480;2023-03-25T13:42:03;1.90;;;0.90;;
17890;SDS011;9071;48.220;14.480;2023-03-25T13:47:12;3.33;;;1.20;;
17890;SDS011;9071;48.220;14.480;2023-03-25T13:52:20;3.03;;;1.07;;
17890;SDS011;9071;48.220;14.480;2023-03-25T14:03:22;2.37;;;0.60;;
17890;SDS011;9071;48.220;14.480;2023-03-25T14:14:43;2.20;;;0.70;;
17890;SDS011;9071;48.220;14.480;2023-03-25T14:19:49;8.67;;;1.93;;
17890;SDS011;9071;48.220;14.480;2023-03-25T14:24:54;6.00;;;1.27;;
17890;SDS011;9071;48.220;14.480;2023-03-25T14:29:59;4.00;;;0.67;;
17890;SDS011;9071;48.220;14.480;2023-03-25T14:40:57;2.23;;;0.67;;
17890;SDS011;9071;48.220;14.480;2023-03-25T14:46:05;4.67;;;1.10;;
17890;SDS011;9071;48.220;14.480;2023-03-25T14:51:41;1.57;;;0.60;;
17890;SDS011;9071;48.220;14.480;2023-03-25T14:56:46;1.23;;;0.50;;
17890;SDS011;9071;48.220;14.480;2023-03-25T15:02:07;1.90;;;0.80;;
17890;SDS011;9071;48.220;14.480;2023-03-25T15:07:15;1.10;;;0.40;;
17890;SDS011;9071;48.220;14.480;2023-03-25T15:12:20;1.70;;;0.30;;
17890;SDS011;9071;48.220;14.480;2023-03-25T15:17:40;0.87;;;0.50;;
17890;SDS011;9071;48.220;14.480;2023-03-25T15:22:44;0.50;;;0.40;;
17890;SDS011;9071;48.220;14.480;2023-03-25T15:34:07;2.47;;;0.93;;
17890;SDS011;9071;48.220;14.480;2023-03-25T15:39:29;2.67;;;0.80;;
17890;SDS011;9071;48.220;14.480;2023-03-25T15:44:44;1.80;;;0.53;;
17890;SDS011;9071;48.220;14.480;2023-03-25T15:50:01;0.60;;;0.50;;
17890;SDS011;9071;48.220;14.480;2023-03-25T15:55:22;0.63;;;0.50;;
17890;SDS011;9071;48.220;14.480;2023-03-25T16:00:30;2.83;;;0.80;;
17890;SDS011;9071;48.220;14.480;2023-03-25T16:05:36;1.10;;;0.70;;
17890;SDS011;9071;48.220;14.480;2023-03-25T16:10:40;2.57;;;1.00;;
17890;SDS011;9071;48.220;14.480;2023-03-25T16:15:45;0.50;;;0.40;;
17890;SDS011;9071;48.220;14.480;2023-03-25T16:20:49;0.83;;;0.50;;
17890;SDS011;9071;48.220;14.480;2023-03-25T16:25:56;0.80;;;0.40;;
17890;SDS011;9071;48.220;14.480;2023-03-25T16:30:58;4.87;;;1.10;;
17890;SDS011;9071;48.220;14.480;2023-03-25T16:36:03;1.03;;;0.47;;
17890;SDS011;9071;48.220;14.480;2023-03-25T16:41:09;3.53;;;1.07;;
17890;SDS011;9071;48.220;14.480;2023-03-25T16:46:13;2.07;;;1.43;;
17890;SDS011;9071;48.220;14.480;2023-03-25T16:51:20;1.27;;;0.93;;
17890;SDS011;9071;48.220;14.480;2023-03-25T16:56:23;2.90;;;1.70;;
17890;SDS011;9071;48.220;14.480;2023-03-25T17:01:31;4.40;;;1.70;;
17890;SDS011;9071;48.220;14.480;2023-03-25T17:06:38;2.00;;;1.33;;
17890;SDS011;9071;48.220;14.480;2023-03-25T17:11:44;0.90;;;0.80;;
17890;SDS011;9071;48.220;14.480;2023-03-25T17:16:48;2.27;;;0.70;;
17890;SDS011;9071;48.220;14.480;2023-03-25T17:22:02;2.80;;;1.60;;
17890;SDS011;9071;48.220;14.480;2023-03-25T17:27:25;1.90;;;1.03;;
17890;SDS011;9071;48.220;14.480;2023-03-25T17:32:39;1.77;;;1.20;;
17890;SDS011;9071;48.220;14.480;2023-03-25T17:37:46;1.57;;;0.80;;
17890;SDS011;9071;48.220;14.480;2023-03-25T17:42:49;1.70;;;1.03;;
17890;SDS011;9071;48.220;14.480;2023-03-25T17:47:51;2.70;;;0.60;;
17890;SDS011;9071;48.220;14.480;2023-03-25T17:52:55;2.33;;;0.93;;
17890;SDS011;9071;48.220;14.480;2023-03-25T17:57:58;2.43;;;1.10;;
17890;SDS011;9071;48.220;14.480;2023-03-25T18:03:00;1.20;;;0.70;;
17890;SDS011;9071;48.220;14.480;2023-03-25T18:08:03;1.33;;;0.50;;
17890;SDS011;9071;48.220;14.480;2023-03-25T18:13:06;0.40;;;0.40;;
17890;SDS011;9071;48.220;14.480;2023-03-25T18:18:10;0.73;;;0.50;;
17890;SDS011;9071;48.220;14.480;2023-03-25T18:23:17;1.33;;;0.83;;
17890;SDS011;9071;48.220;14.480;2023-03-25T18:28:19;2.07;;;0.90;;
17890;SDS011;9071;48.220;14.480;2023-03-25T18:33:22;3.03;;;0.90;;
17890;SDS011;9071;48.220;14.480;2023-03-25T18:38:26;1.87;;;0.60;;
17890;SDS011;9071;48.220;14.480;2023-03-25T18:43:28;1.90;;;0.80;;
17890;SDS011;9071;48.220;14.480;2023-03-25T18:48:31;2.97;;;0.80;;
17890;SDS011;9071;48.220;14.480;2023-03-25T18:53:34;0.77;;;0.60;;
17890;SDS011;9071;48.220;14.480;2023-03-25T18:58:36;1.47;;;0.73;;
17890;SDS011;9071;48.220;14.480;2023-03-25T19:03:38;0.70;;;0.70;;
17890;SDS011;9071;48.220;14.480;2023-03-25T19:08:42;1.00;;;0.80;;
17890;SDS011;9071;48.220;14.480;2023-03-25T19:13:45;3.27;;;1.80;;
17890;SDS011;9071;48.220;14.480;2023-03-25T19:18:47;3.77;;;2.00;;
17890;SDS011;9071;48.220;14.480;2023-03-25T19:23:51;3.03;;;1.10;;
17890;SDS011;9071;48.220;14.480;2023-03-25T19:28:53;1.23;;;1.00;;
17890;SDS011;9071;48.220;14.480;2023-03-25T19:33:55;1.43;;;0.70;;
17890;SDS011;9071;48.220;14.480;2023-03-25T19:38:58;1.53;;;1.20;;
17890;SDS011;9071;48.220;14.480;2023-03-25T19:44:04;2.77;;;1.70;;
17890;SDS011;9071;48.220;14.480;2023-03-25T19:49:06;2.87;;;1.70;;
17890;SDS011;9071;48.220;14.480;2023-03-25T19:54:10;2.60;;;1.17;;
17890;SDS011;9071;48.220;14.480;2023-03-25T19:59:14;3.83;;;1.40;;
17890;SDS011;9071;48.220;14.480;2023-03-25T20:04:17;2.60;;;1.50;;
17890;SDS011;9071;48.220;14.480;2023-03-25T20:09:20;4.73;;;1.90;;
17890;SDS011;9071;48.220;14.480;2023-03-25T20:14:23;5.37;;;2.63;;
17890;SDS011;9071;48.220;14.480;2023-03-25T20:19:25;4.10;;;1.83;;
17890;SDS011;9071;48.220;14.480;2023-03-25T20:24:28;4.20;;;2.10;;
17890;SDS011;9071;48.220;14.480;2023-03-25T20:29:30;3.93;;;2.10;;
17890;SDS011;9071;48.220;14.480;2023-03-25T20:34:32;4.80;;;2.00;;
17890;SDS011;9071;48.220;14.480;2023-03-25T20:39:38;5.50;;;2.10;;
17890;SDS011;9071;48.220;14.480;2023-03-25T20:44:40;3.93;;;1.90;;
17890;SDS011;9071;48.220;14.480;2023-03-25T20:49:44;3.40;;;1.60;;
17890;SDS011;9071;48.220;14.480;2023-03-25T20:54:48;3.33;;;1.30;;
17890;SDS011;9071;48.220;14.480;2023-03-25T20:59:50;4.87;;;2.27;;
17890;SDS011;9071;48.220;14.480;2023-03-25T21:04:53;8.10;;;3.70;;
17890;SDS011;9071;48.220;14.480;2023-03-25T21:09:58;4.67;;;3.00;;
17890;SDS011;9071;48.220;14.480;2023-03-25T21:15:01;3.63;;;2.27;;
17890;SDS011;9071;48.220;14.480;2023-03-25T21:20:04;1.73;;;1.50;;
17890;SDS011;9071;48.220;14.480;2023-03-25T21:25:08;3.13;;;2.10;;
17890;SDS011;9071;48.220;14.480;2023-03-25T21:30:12;1.70;;;1.60;;
17890;SDS011;9071;48.220;14.480;2023-03-25T21:35:15;5.00;;;2.47;;
17890;SDS011;9071;48.220;14.480;2023-03-25T21:40:18;5.60;;;4.03;;
17890;SDS011;9071;48.220;14.480;2023-03-25T21:45:21;8.70;;;4.87;;
17890;SDS011;9071;48.220;14.480;2023-03-25T21:50:24;4.50;;;2.93;;
17890;SDS011;9071;48.220;14.480;2023-03-25T21:55:28;5.20;;;3.20;;
17890;SDS011;9071;48.220;14.480;2023-03-25T22:00:31;9.20;;;5.20;;
17890;SDS011;9071;48.220;14.480;2023-03-25T22:05:33;8.00;;;4.57;;
17890;SDS011;9071;48.220;14.480;2023-03-25T22:10:37;5.93;;;3.97;;
17890;SDS011;9071;48.220;14.480;2023-03-25T22:15:39;4.93;;;3.10;;
17890;SDS011;9071;48.220;14.480;2023-03-25T22:20:41;4.87;;;3.10;;
17890;SDS011;9071;48.220;14.480;2023-03-25T22:25:45;2.77;;;1.70;;
17890;SDS011;9071;48.220;14.480;2023-03-25T22:30:47;2.33;;;1.40;;
17890;SDS011;9071;48.220;14.480;2023-03-25T22:35:49;4.30;;;1.93;;
17890;SDS011;9071;48.220;14.480;2023-03-25T22:40:52;2.67;;;1.80;;
17890;SDS011;9071;48.220;14.480;2023-03-25T22:45:54;2.27;;;1.83;;
17890;SDS011;9071;48.220;14.480;2023-03-25T22:50:57;5.47;;;2.73;;
17890;SDS011;9071;48.220;14.480;2023-03-25T22:56:00;4.50;;;3.23;;
17890;SDS011;9071;48.220;14.480;2023-03-25T23:01:04;4.97;;;3.20;;
17890;SDS011;9071;48.220;14.480;2023-03-25T23:06:07;7.50;;;3.30;;
17890;SDS011;9071;48.220;14.480;2023-03-25T23:11:13;3.23;;;2.67;;
17890;SDS011;9071;48.220;14.480;2023-03-25T23:16:18;5.90;;;3.33;;
17890;SDS011;9071;48.220;14.480;2023-03-25T23:21:21;4.37;;;3.27;;
17890;SDS011;9071;48.220;14.480;2023-03-25T23:26:28;9.00;;;4.20;;
17890;SDS011;9071;48.220;14.480;2023-03-25T23:31:35;5.63;;;3.73;;
17890;SDS011;9071;48.220;14.480;2023-03-25T23:36:40;6.03;;;4.43;;
17890;SDS011;9071;48.220;14.480;2023-03-25T23:41:44;5.70;;;4.33;;
17890;SDS011;9071;48.220;14.480;2023-03-25T23:46:46;6.13;;;4.80;;
17890;SDS011;9071;48.220;14.480;2023-03-25T23:51:50;6.33;;;3.20;;
17890;SDS011;9071;48.220;14.480;2023-03-25T23:56:53;6.60;;;4.50;;
